Time;durP1;ratioP1;P1;durP2;ratioP2;P2;SDS_P1;SDS_P2;PMS_P1;PMS_P2;Temp;Humidity;BMP_temperature;BMP_pressure;BME280_temperature;BME280_humidity;BME280_pressure;Samples;Min_cycle;Max_cycle;Signal;HPM_P1;HPM_P2
2022/08/03 00:01:16;;;;;;;3.13;2.50;;;;;;;16.29;67.03;93539.47;5030582;28;20052;-56
2022/08/03 00:03:42;;;;;;;2.22;2.03;;;;;;;16.06;68.16;93537.09;5031895;28;20021;-56
2022/08/03 00:06:08;;;;;;;4.15;2.28;;;;;;;16.23;67.07;93533.44;5031732;28;20029;-56
2022/08/03 00:08:33;;;;;;;2.60;2.35;;;;;;;15.94;68.71;93533.38;5031643;28;20025;-56
2022/08/03 00:10:59;;;;;;;2.67;2.20;;;;;;;16.09;68.29;93532.41;5030779;28;20033;-56
2022/08/03 00:13:25;;;;;;;3.33;2.00;;;;;;;16.04;68.14;93534.16;5030192;28;20118;-53
2022/08/03 00:15:50;;;;;;;3.22;1.98;;;;;;;16.07;67.99;93544.09;5026231;28;20029;-50
2022/08/03 00:18:16;;;;;;;2.33;2.10;;;;;;;16.03;67.91;93535.47;5018563;28;20739;-53
2022/08/03 00:20:41;;;;;;;2.30;2.10;;;;;;;15.90;67.84;93528.25;5029033;28;20547;-55
2022/08/03 00:23:07;;;;;;;1.90;1.80;;;;;;;15.82;68.53;93530.44;5030737;28;20041;-55
2022/08/03 00:25:36;;;;;;;2.20;1.88;;;;;;;15.64;68.38;93520.69;5027696;28;20044;-54
2022/08/03 00:28:03;;;;;;;2.03;1.83;;;;;;;15.83;68.48;93536.72;5031108;28;20562;-53
2022/08/03 00:30:29;;;;;;;2.88;2.10;;;;;;;15.85;68.25;93532.03;5031123;28;20032;-51
2022/08/03 00:32:55;;;;;;;2.33;2.13;;;;;;;15.62;68.58;93525.34;5031515;28;20029;-51
2022/08/03 00:35:20;;;;;;;2.53;2.00;;;;;;;15.56;68.99;93527.69;5031572;28;20470;-49
2022/08/03 00:37:46;;;;;;;2.42;1.88;;;;;;;15.83;68.42;93528.38;5031187;28;20422;-48
2022/08/03 00:40:13;;;;;;;2.25;2.05;;;;;;;15.72;68.85;93528.94;5031184;28;20025;-49
2022/08/03 00:42:50;;;;;;;4.53;2.30;;;;;;;15.60;69.34;93525.94;5031384;28;20029;-49
2022/08/03 00:45:17;;;;;;;3.80;2.08;;;;;;;15.73;69.18;93522.03;5029619;28;20548;-51
2022/08/03 00:47:43;;;;;;;2.22;2.08;;;;;;;15.66;69.31;93520.09;5030910;28;20035;-48
2022/08/03 00:50:09;;;;;;;2.25;2.05;;;;;;;15.67;69.64;93527.16;5030108;28;20104;-48
2022/08/03 00:52:34;;;;;;;2.03;1.92;;;;;;;15.65;69.15;93522.16;5031074;28;20455;-48
2022/08/03 00:55:01;;;;;;;2.10;1.95;;;;;;;15.71;68.95;93528.19;5031246;28;20028;-48
2022/08/03 00:57:29;;;;;;;1.98;1.88;;;;;;;15.58;68.62;93522.28;5031078;28;20136;-48
2022/08/03 00:59:54;;;;;;;7.22;2.63;;;;;;;15.50;68.52;93527.97;5031252;28;20098;-48
2022/08/03 01:02:20;;;;;;;6.60;2.33;;;;;;;15.54;68.38;93530.31;5031008;28;20569;-48
2022/08/03 01:04:45;;;;;;;4.22;2.40;;;;;;;15.35;69.02;93519.06;5031390;28;20041;-48
2022/08/03 01:07:23;;;;;;;3.20;2.90;;;;;;;15.17;69.39;93529.50;5031427;28;20419;-50
2022/08/03 01:09:56;;;;;;;4.05;3.72;;;;;;;15.12;69.62;93527.72;5029975;28;20034;-48
2022/08/03 01:12:38;;;;;;;3.80;3.38;;;;;;;15.14;69.19;93508.41;5030862;28;20112;-50
2022/08/03 01:15:57;;;;;;;4.60;3.45;;;;;;;15.08;70.21;93517.03;5029265;28;20033;-48
2022/08/03 01:18:28;;;;;;;3.38;3.05;;;;;;;15.04;70.20;93522.28;5007552;28;20037;-48
2022/08/03 01:20:55;;;;;;;3.80;3.20;;;;;;;15.15;70.09;93527.31;5029469;28;20474;-48
2022/08/03 01:23:42;;;;;;;3.92;3.55;;;;;;;15.13;70.39;93521.59;5035052;28;20487;-46
2022/08/03 01:26:35;;;;;;;3.88;3.33;;;;;;;15.07;71.17;93523.88;5030086;28;20029;-48
2022/08/03 01:29:04;;;;;;;3.50;3.10;;;;;;;15.07;71.09;93523.16;5029269;28;20453;-49
2022/08/03 01:31:46;;;;;;;5.22;2.70;;;;;;;14.94;71.57;93523.53;5028008;28;20060;-47
2022/08/03 01:34:14;;;;;;;3.53;3.00;;;;;;;15.07;70.87;93517.59;5027878;28;20176;-46
2022/08/03 01:36:43;;;;;;;5.97;3.58;;;;;;;14.89;71.32;93522.47;5028026;28;20477;-49
2022/08/03 01:39:10;;;;;;;4.05;3.65;;;;;;;14.95;70.83;93525.72;5027417;28;20037;-50
2022/08/03 01:41:49;;;;;;;3.33;3.00;;;;;;;14.91;70.70;93516.31;5027667;28;20088;-49
2022/08/03 01:44:14;;;;;;;;;;;;;;;15.02;70.20;93513.03;5029518;28;20513;-53
2022/08/03 01:46:40;;;;;;;3.78;3.40;;;;;;;14.82;70.90;93512.19;5027315;28;19999;-52
2022/08/03 01:49:09;;;;;;;6.03;2.72;;;;;;;14.71;71.24;93511.94;5053219;28;20482;-53
2022/08/03 01:51:35;;;;;;;;;;;;;;;14.87;70.77;93511.19;5027883;28;20030;-52
2022/08/03 01:54:02;;;;;;;2.17;1.98;;;;;;;14.79;69.58;93507.75;5029647;28;19912;-54
2022/08/03 01:56:28;;;;;;;3.22;2.47;;;;;;;14.90;69.29;93512.09;5028357;28;20025;-51
2022/08/03 01:58:53;;;;;;;2.60;2.40;;;;;;;15.01;68.97;93512.28;5028787;28;20554;-48
2022/08/03 02:01:20;;;;;;;8.18;3.10;;;;;;;14.98;69.41;93513.47;5028845;28;20125;-50
2022/08/03 02:03:48;;;;;;;4.05;3.17;;;;;;;14.83;70.18;93508.09;5027898;28;20525;-50
2022/08/03 02:06:14;;;;;;;4.85;2.90;;;;;;;14.85;70.67;93501.97;5029336;28;20025;-48
2022/08/03 02:08:41;;;;;;;4.65;3.28;;;;;;;14.84;70.53;93495.66;5028881;28;20112;-48
2022/08/03 02:11:06;;;;;;;3.05;2.75;;;;;;;14.49;70.45;93449.06;5028816;28;20047;-48
2022/08/03 02:13:33;;;;;;;5.22;2.67;;;;;;;14.70;70.25;93502.88;5030280;28;20033;-49
2022/08/03 02:16:00;;;;;;;2.42;2.20;;;;;;;14.69;70.06;93497.88;5029980;28;20033;-49
2022/08/03 02:18:26;;;;;;;3.97;2.40;;;;;;;14.61;70.26;93500.78;5029944;28;20039;-51
2022/08/03 02:20:52;;;;;;;2.35;2.13;;;;;;;14.58;70.38;93499.13;5029122;28;20029;-47
2022/08/03 02:23:18;;;;;;;2.45;2.25;;;;;;;14.65;69.85;93503.13;5047630;28;20728;-49
2022/08/03 02:25:45;;;;;;;2.28;2.03;;;;;;;14.52;70.06;93497.91;5050208;28;20037;-51
2022/08/03 02:28:15;;;;;;;3.92;2.10;;;;;;;14.64;69.79;93498.88;5048688;28;20039;-48
2022/08/03 02:30:42;;;;;;;2.90;2.50;;;;;;;14.54;70.36;93498.06;5048843;28;20028;-49
2022/08/03 02:33:13;;;;;;;4.00;3.00;;;;;;;14.61;70.52;93500.03;5048482;28;20033;-49
2022/08/03 02:35:39;;;;;;;2.55;2.33;;;;;;;14.42;70.63;93506.91;5048955;28;20028;-47
2022/08/03 02:38:07;;;;;;;3.35;3.08;;;;;;;14.35;70.18;93509.78;5048913;28;20021;-46
2022/08/03 02:40:33;;;;;;;2.72;2.30;;;;;;;14.30;70.03;93502.41;5049970;28;20053;-46
2022/08/03 02:43:01;;;;;;;2.88;1.98;;;;;;;14.19;70.30;93500.09;5054019;28;20104;-47
2022/08/03 02:45:28;;;;;;;2.65;2.45;;;;;;;14.11;71.07;93510.53;5053679;28;20059;-49
2022/08/03 02:47:57;;;;;;;3.03;2.50;;;;;;;14.37;69.98;93512.72;5034443;28;20068;-48
2022/08/03 02:50:23;;;;;;;3.05;2.75;;;;;;;14.27;70.64;93509.09;5018143;28;20033;-51
2022/08/03 02:52:50;;;;;;;7.13;2.45;;;;;;;14.33;70.00;93510.34;5011118;28;20054;-50
2022/08/03 02:55:16;;;;;;;3.60;3.17;;;;;;;14.32;70.72;93508.13;5012377;28;20026;-51
2022/08/03 02:57:42;;;;;;;3.70;3.22;;;;;;;14.37;70.21;93519.00;5010908;28;20022;-49
2022/08/03 03:00:08;;;;;;;6.80;3.78;;;;;;;14.33;70.49;93517.94;5024082;28;20051;-50
2022/08/03 03:02:34;;;;;;;6.22;3.88;;;;;;;14.13;71.72;93522.56;5031027;28;20045;-49
2022/08/03 03:05:01;;;;;;;4.72;3.90;;;;;;;14.14;71.59;93523.31;5033435;28;20033;-50
2022/08/03 03:07:26;;;;;;;4.25;3.85;;;;;;;14.00;72.49;93514.53;5031940;28;20037;-51
2022/08/03 03:09:52;;;;;;;7.72;3.13;;;;;;;14.06;72.86;93498.38;5033569;28;20430;-48
2022/08/03 03:12:18;;;;;;;6.20;5.03;;;;;;;14.24;73.05;93522.06;5033174;28;20053;-49
2022/08/03 03:14:44;;;;;;;3.60;2.95;;;;;;;14.05;71.04;93532.25;5032367;28;20170;-53
2022/08/03 03:17:10;;;;;;;3.05;2.47;;;;;;;13.91;71.01;93522.75;5033493;28;20457;-49
2022/08/03 03:19:38;;;;;;;3.10;2.83;;;;;;;13.93;70.86;93528.47;5031999;28;20092;-50
2022/08/03 03:22:05;;;;;;;2.93;2.63;;;;;;;13.93;71.13;93520.16;5033200;28;20032;-51
2022/08/03 03:24:31;;;;;;;4.68;3.40;;;;;;;14.02;71.46;93536.16;5032031;28;20440;-57
2022/08/03 03:26:57;;;;;;;4.35;2.67;;;;;;;14.08;71.28;93534.63;5032133;28;20526;-49
2022/08/03 03:29:22;;;;;;;5.18;3.40;;;;;;;14.11;71.61;93538.31;5031983;28;20502;-55
2022/08/03 03:31:48;;;;;;;4.75;3.60;;;;;;;14.02;71.98;93542.47;5032000;28;20033;-50
2022/08/03 03:34:14;;;;;;;4.50;3.85;;;;;;;13.89;72.83;93533.69;5031086;28;20100;-53
2022/08/03 03:36:40;;;;;;;4.15;3.75;;;;;;;14.12;72.33;93548.13;5030231;28;20083;-50
2022/08/03 03:39:05;;;;;;;4.28;3.67;;;;;;;14.09;72.13;93541.66;5030691;28;20030;-52
2022/08/03 03:41:31;;;;;;;7.10;3.85;;;;;;;14.05;71.96;93543.38;5031762;28;20037;-51
2022/08/03 03:43:57;;;;;;;5.13;3.17;;;;;;;13.96;71.82;93544.00;5030538;28;20029;-49
2022/08/03 03:46:22;;;;;;;7.07;3.25;;;;;;;14.01;71.51;93545.81;5031422;28;20117;-49
2022/08/03 03:48:48;;;;;;;5.50;3.35;;;;;;;13.90;71.82;93540.72;5031374;28;20036;-53
2022/08/03 03:51:14;;;;;;;3.45;3.15;;;;;;;13.85;72.28;93558.34;5032771;28;20087;-51
2022/08/03 03:53:39;;;;;;;5.22;2.70;;;;;;;13.89;71.82;93547.56;5031339;28;20025;-53
2022/08/03 03:56:05;;;;;;;3.42;3.13;;;;;;;13.76;71.97;93547.88;5032757;28;20029;-48
2022/08/03 03:58:31;;;;;;;7.50;3.03;;;;;;;13.79;72.09;93547.47;5031927;28;20091;-47
2022/08/03 04:00:56;;;;;;;7.43;3.22;;;;;;;13.75;72.14;93532.53;5032497;28;20036;-50
2022/08/03 04:03:22;;;;;;;6.70;2.50;;;;;;;13.81;72.17;93555.22;5032388;28;20025;-55
2022/08/03 04:11:26;;;;;;;3.10;2.80;;;;;;;13.65;72.87;93555.34;5032604;28;20144;-54
2022/08/03 04:14:17;;;;;;;4.22;2.95;;;;;;;13.72;72.97;93550.31;5032321;28;20083;-55
2022/08/03 04:16:46;;;;;;;3.67;2.80;;;;;;;13.82;72.81;93560.22;5024766;28;20060;-52
2022/08/03 04:19:18;;;;;;;3.70;3.33;;;;;;;13.84;73.01;93562.44;5022221;28;20026;-49
2022/08/03 04:21:47;;;;;;;7.93;3.42;;;;;;;13.92;72.89;93563.09;5015700;28;20018;-49
2022/08/03 04:24:14;;;;;;;3.72;3.35;;;;;;;13.88;73.51;93562.78;5030525;28;20029;-50
2022/08/03 04:26:42;;;;;;;11.63;4.63;;;;;;;13.78;74.55;93570.22;5031492;28;20032;-49
2022/08/03 04:29:10;;;;;;;4.95;3.65;;;;;;;14.01;73.30;93548.59;5031918;28;20419;-53
2022/08/03 04:31:37;;;;;;;6.88;3.65;;;;;;;14.23;72.72;93564.28;5030551;28;20033;-50
2022/08/03 04:34:03;;;;;;;3.90;3.60;;;;;;;14.26;72.69;93568.72;5031850;28;20083;-48
2022/08/03 04:36:31;;;;;;;4.65;4.15;;;;;;;14.13;72.92;93571.78;5031531;28;20033;-49
2022/08/03 04:39:11;;;;;;;4.75;4.35;;;;;;;14.25;72.34;93567.25;5031529;28;20033;-50
2022/08/03 04:41:37;;;;;;;5.03;4.30;;;;;;;14.01;72.79;93549.31;5030711;28;20037;-52
2022/08/03 04:44:03;;;;;;;6.40;5.07;;;;;;;14.11;73.01;93560.53;5030640;28;20017;-50
2022/08/03 04:46:33;;;;;;;5.35;4.47;;;;;;;14.49;71.54;93568.53;5030214;28;20036;-50
2022/08/03 04:49:00;;;;;;;5.43;4.20;;;;;;;14.25;72.79;93573.53;5030264;28;20029;-50
2022/08/03 04:51:25;;;;;;;6.20;4.45;;;;;;;14.35;73.00;93571.63;5030248;28;20047;-50
2022/08/03 04:53:51;;;;;;;5.50;4.18;;;;;;;14.37;73.52;93566.22;5030160;28;20422;-48
2022/08/03 04:56:17;;;;;;;4.03;3.53;;;;;;;14.45;73.45;93574.47;5031209;28;20080;-58
2022/08/03 04:58:42;;;;;;;4.72;4.07;;;;;;;14.71;72.63;93562.69;5031202;28;20036;-49
2022/08/03 05:01:08;;;;;;;5.97;4.07;;;;;;;14.97;72.28;93575.94;5030921;28;20025;-48
2022/08/03 05:03:33;;;;;;;5.10;4.03;;;;;;;14.86;73.09;93575.69;5031017;28;20021;-55
2022/08/03 05:05:59;;;;;;;4.97;4.25;;;;;;;14.95;73.41;93566.69;5031352;28;20032;-55
2022/08/03 05:08:25;;;;;;;4.28;3.70;;;;;;;15.08;73.63;93571.91;5031229;28;20036;-52
2022/08/03 05:10:50;;;;;;;3.92;3.20;;;;;;;15.26;73.40;93570.56;5031248;28;20021;-52
2022/08/03 05:13:16;;;;;;;5.85;3.83;;;;;;;15.38;73.96;93573.53;5030544;28;20472;-55
2022/08/03 05:15:41;;;;;;;3.75;3.45;;;;;;;15.52;73.78;93583.03;5030188;28;20032;-51
2022/08/03 05:18:07;;;;;;;3.47;3.08;;;;;;;15.61;74.25;93579.56;5031205;28;20034;-54
2022/08/03 05:20:32;;;;;;;2.90;2.60;;;;;;;15.70;75.10;93574.03;5031041;28;20552;-55
2022/08/03 05:23:00;;;;;;;9.75;3.50;;;;;;;15.81;75.51;93579.06;5046708;28;20048;-55
2022/08/03 05:25:25;;;;;;;7.95;2.88;;;;;;;15.81;75.41;93551.22;5050484;28;20025;-56
2022/08/03 05:27:51;;;;;;;4.45;3.28;;;;;;;16.04;75.01;93573.13;5050392;28;20017;-53
2022/08/03 05:30:16;;;;;;;3.03;2.72;;;;;;;16.12;74.07;93567.44;5050529;28;20033;-58
2022/08/03 05:32:42;;;;;;;3.42;3.13;;;;;;;16.24;73.16;93574.66;5050344;28;20035;-56
2022/08/03 05:35:08;;;;;;;4.35;3.85;;;;;;;16.32;72.89;93578.06;5031363;28;20120;-53
2022/08/03 05:37:33;;;;;;;4.13;3.70;;;;;;;16.41;73.36;93580.13;5030364;28;20025;-57
2022/08/03 05:39:59;;;;;;;8.85;6.35;;;;;;;16.48;74.34;93581.31;5030685;28;20029;-52
2022/08/03 05:42:24;;;;;;;9.48;3.65;;;;;;;16.65;73.66;93581.94;5030370;28;20025;-52
2022/08/03 05:44:50;;;;;;;6.78;4.63;;;;;;;16.83;74.23;93584.59;5030368;28;20025;-52
2022/08/03 05:47:15;;;;;;;8.50;6.18;;;;;;;16.95;73.06;93585.47;5030452;28;20033;-50
2022/08/03 05:49:41;;;;;;;12.43;7.18;;;;;;;17.05;72.32;93586.94;5030615;28;20021;-50
2022/08/03 05:52:06;;;;;;;11.48;6.45;;;;;;;17.06;71.99;93593.25;5023243;28;20037;-51
2022/08/03 05:54:31;;;;;;;7.38;4.95;;;;;;;17.18;71.93;93586.50;5010365;28;20033;-47
2022/08/03 05:56:57;;;;;;;5.03;3.75;;;;;;;17.41;70.32;93583.94;5028630;28;20028;-51
2022/08/03 05:59:24;;;;;;;4.93;3.85;;;;;;;17.59;70.18;93581.75;5026910;28;20029;-51
2022/08/03 06:01:49;;;;;;;5.47;3.90;;;;;;;17.67;70.03;93587.88;5027922;28;20045;-49
2022/08/03 06:04:15;;;;;;;3.88;3.47;;;;;;;17.72;69.86;93588.91;5028455;28;20095;-48
2022/08/03 06:06:41;;;;;;;3.88;3.08;;;;;;;17.81;69.94;93602.09;5026446;28;20017;-49
2022/08/03 06:09:06;;;;;;;10.13;3.90;;;;;;;17.88;69.65;93596.34;5028526;28;20087;-49
2022/08/03 06:11:32;;;;;;;3.20;2.90;;;;;;;17.96;69.92;93596.16;5025819;28;20021;-50
2022/08/03 06:13:57;;;;;;;3.13;2.78;;;;;;;17.91;68.97;93575.59;5028570;28;20075;-50
2022/08/03 06:16:22;;;;;;;5.95;3.28;;;;;;;18.26;69.39;93601.03;5024169;28;20021;-52
2022/08/03 06:18:48;;;;;;;7.03;2.70;;;;;;;18.30;69.14;93603.41;5025542;28;20029;-47
2022/08/03 06:21:14;;;;;;;2.55;2.35;;;;;;;18.45;68.52;93598.16;5024641;28;20017;-51
2022/08/03 06:23:42;;;;;;;2.40;2.20;;;;;;;18.58;68.40;93608.13;5026123;28;20022;-49
2022/08/03 06:26:07;;;;;;;2.72;2.50;;;;;;;18.68;68.22;93592.00;5025187;28;20050;-49
2022/08/03 06:28:33;;;;;;;6.60;2.47;;;;;;;18.76;66.10;93600.94;5027514;28;20020;-50
2022/08/03 06:30:58;;;;;;;8.98;5.43;;;;;;;18.89;65.31;93606.00;5028410;28;20115;-50
2022/08/03 06:33:25;;;;;;;4.88;3.33;;;;;;;18.99;63.49;93605.94;5028215;28;20025;-57
2022/08/03 06:35:50;;;;;;;8.90;4.35;;;;;;;19.14;63.53;93595.06;5028424;28;20108;-57
2022/08/03 06:38:16;;;;;;;3.00;2.70;;;;;;;19.31;62.70;93605.97;5027034;28;20120;-56
2022/08/03 06:40:41;;;;;;;4.72;2.30;;;;;;;19.38;62.19;93598.72;5023763;28;20029;-51
2022/08/03 06:43:07;;;;;;;2.58;2.38;;;;;;;19.48;62.99;93600.09;5028258;28;20018;-56
2022/08/03 06:45:34;;;;;;;3.85;2.00;;;;;;;19.56;61.73;93597.03;5025461;28;20100;-52
2022/08/03 06:48:10;;;;;;;3.65;2.60;;;;;;;19.79;61.07;93604.78;5023379;28;20064;-52
2022/08/03 06:50:37;;;;;;;507.67;45.97;;;;;;;19.92;62.42;93598.59;5026010;28;20022;-57
2022/08/03 06:53:03;;;;;;;4.13;2.22;;;;;;;19.99;61.09;93589.22;5026174;28;20033;-51
2022/08/03 06:55:29;;;;;;;2.55;2.28;;;;;;;20.29;59.18;93588.31;5028110;28;20025;-55
2022/08/03 06:57:54;;;;;;;2.33;2.05;;;;;;;20.51;58.14;93586.09;5027736;28;20029;-54
2022/08/03 07:00:20;;;;;;;2.15;1.90;;;;;;;20.66;58.64;93591.91;5027337;28;20028;-55
2022/08/03 07:02:46;;;;;;;5.15;2.22;;;;;;;20.88;57.56;93582.00;5026050;28;20049;-59
2022/08/03 07:05:12;;;;;;;2.40;2.05;;;;;;;20.90;56.79;93581.38;5028288;28;20048;-51
2022/08/03 07:07:38;;;;;;;2.30;2.10;;;;;;;20.88;57.57;93584.06;5028436;28;20543;-51
2022/08/03 07:10:04;;;;;;;5.18;2.17;;;;;;;20.92;59.42;93582.22;5028465;28;20055;-49
2022/08/03 07:12:30;;;;;;;3.45;2.60;;;;;;;21.06;58.51;93576.72;5027765;28;20025;-51
2022/08/03 07:14:57;;;;;;;4.72;2.15;;;;;;;21.14;57.98;93572.31;5011539;28;20057;-49
2022/08/03 07:17:23;;;;;;;1.95;1.85;;;;;;;21.47;56.41;93579.75;5021106;28;20037;-49
2022/08/03 07:19:49;;;;;;;2.72;2.13;;;;;;;21.41;56.99;93587.84;5026946;28;20029;-51
2022/08/03 07:22:14;;;;;;;2.30;1.90;;;;;;;21.57;56.16;93583.13;5024017;28;20045;-53
2022/08/03 07:24:42;;;;;;;6.32;2.20;;;;;;;21.73;56.59;93586.81;5027897;28;20025;-57
2022/08/03 07:27:08;;;;;;;2.97;2.50;;;;;;;21.78;56.93;93583.63;5026239;28;20033;-51
2022/08/03 07:29:35;;;;;;;2.20;2.10;;;;;;;22.00;55.96;93584.13;5025633;28;20400;-57
2022/08/03 07:32:01;;;;;;;3.20;2.30;;;;;;;22.39;57.35;93581.25;5030919;28;20032;-54
2022/08/03 07:34:26;;;;;;;2.42;2.22;;;;;;;22.48;54.94;93581.03;5030535;28;20025;-51
2022/08/03 07:36:52;;;;;;;3.60;1.95;;;;;;;22.89;55.91;93583.88;5027973;28;20025;-52
2022/08/03 07:39:17;;;;;;;3.92;2.30;;;;;;;23.51;54.03;93574.28;5024670;28;20036;-49
2022/08/03 07:41:43;;;;;;;3.13;2.83;;;;;;;24.24;48.20;93586.88;5029581;28;20031;-51
2022/08/03 07:44:08;;;;;;;3.47;3.17;;;;;;;24.84;46.46;93587.53;5030297;28;20300;-54
2022/08/03 07:46:33;;;;;;;1.65;1.55;;;;;;;25.31;46.87;93583.84;5030291;28;20026;-51
2022/08/03 07:48:59;;;;;;;3.90;2.10;;;;;;;25.87;44.78;93583.34;5030058;28;20456;-49
2022/08/03 07:51:24;;;;;;;2.72;1.83;;;;;;;26.35;44.75;93580.94;5029714;28;20091;-52
2022/08/03 07:53:50;;;;;;;1.60;1.38;;;;;;;27.09;40.90;93578.00;5029398;28;20032;-54
2022/08/03 07:56:15;;;;;;;3.58;1.60;;;;;;;27.80;39.46;93575.44;5030402;28;20022;-51
2022/08/03 07:58:41;;;;;;;2.22;2.03;;;;;;;28.26;38.45;93587.56;5029784;28;20021;-55
2022/08/03 08:01:07;;;;;;;1.98;1.85;;;;;;;28.52;38.46;93586.22;5029909;28;20029;-51
2022/08/03 08:03:33;;;;;;;2.30;2.10;;;;;;;28.78;38.39;93589.13;5030647;28;20024;-51
2022/08/03 08:05:58;;;;;;;27.60;3.35;;;;;;;28.85;38.05;93579.38;5030644;28;20017;-51
2022/08/03 08:08:24;;;;;;;40.33;6.28;;;;;;;29.34;37.17;93589.97;5030127;28;20053;-51
2022/08/03 08:10:49;;;;;;;2.08;1.98;;;;;;;29.54;36.02;93586.94;5031961;28;20022;-48
2022/08/03 08:13:15;;;;;;;1.77;1.60;;;;;;;28.98;35.34;93603.16;5032131;28;20380;-51
2022/08/03 08:15:40;;;;;;;1.75;1.27;;;;;;;29.04;34.00;93595.53;5031764;28;20454;-51
2022/08/03 08:18:06;;;;;;;4.15;1.60;;;;;;;29.51;36.89;93591.13;5031807;28;20246;-53
2022/08/03 08:20:34;;;;;;;2.63;1.50;;;;;;;30.18;35.42;93593.50;5031852;28;20079;-47
2022/08/03 08:23:01;;;;;;;2.92;1.85;;;;;;;30.74;33.19;93589.06;5030680;28;20025;-49
2022/08/03 08:25:27;;;;;;;1.75;1.27;;;;;;;31.05;31.06;93590.44;5030453;28;20033;-48
2022/08/03 08:27:53;;;;;;;1.83;1.73;;;;;;;31.39;31.71;93591.09;5030983;28;20056;-48
2022/08/03 08:30:21;;;;;;;1.48;1.38;;;;;;;31.43;32.17;93597.63;5030574;28;20126;-48
2022/08/03 08:32:47;;;;;;;2.85;2.00;;;;;;;31.35;32.30;93588.91;5030832;28;20022;-47
2022/08/03 08:35:13;;;;;;;1.77;1.48;;;;;;;31.33;30.27;93594.59;5030530;28;20018;-47
2022/08/03 08:37:39;;;;;;;4.18;2.70;;;;;;;31.18;32.74;93592.88;5030474;28;20112;-49
2022/08/03 08:40:05;;;;;;;2.42;2.22;;;;;;;31.18;32.55;93595.00;5030188;28;20093;-50
2022/08/03 08:42:31;;;;;;;1.70;1.60;;;;;;;31.15;31.59;93597.06;5030484;28;20487;-49
2022/08/03 08:44:57;;;;;;;4.72;3.63;;;;;;;30.91;31.51;93601.56;5030784;28;20032;-49
2022/08/03 08:47:24;;;;;;;7.50;5.32;;;;;;;30.57;31.57;93596.56;5029945;28;20546;-50
2022/08/03 08:49:54;;;;;;;4.55;2.65;;;;;;;30.48;33.31;93599.91;5027721;28;20025;-51
2022/08/03 08:52:28;;;;;;;3.33;2.17;;;;;;;30.32;33.30;93608.81;5030061;28;20021;-51
2022/08/03 08:54:58;;;;;;;1.45;1.35;;;;;;;29.89;34.03;93601.38;5028086;28;20112;-51
2022/08/03 08:57:34;;;;;;;3.67;1.60;;;;;;;29.53;35.08;93597.59;5029723;28;20124;-52
2022/08/03 09:00:00;;;;;;;2.88;2.13;;;;;;;29.43;34.35;93605.13;5032460;28;20036;-49
2022/08/03 09:02:29;;;;;;;2.10;1.50;;;;;;;29.17;35.57;93593.78;5029642;28;20470;-51
2022/08/03 09:04:55;;;;;;;1.85;1.65;;;;;;;29.04;35.52;93597.66;5030149;28;20025;-53
2022/08/03 09:07:20;;;;;;;2.95;1.70;;;;;;;29.31;36.99;93599.84;5028586;28;20525;-50
2022/08/03 09:09:46;;;;;;;1.60;1.50;;;;;;;30.28;35.30;93579.47;5030172;28;20025;-50
2022/08/03 09:12:11;;;;;;;2.72;1.80;;;;;;;30.85;33.26;93596.44;5028964;28;20048;-50
2022/08/03 09:26:37;;;;;;;4.07;2.00;;;;;;;30.98;33.66;93583.19;5117020;27;21211;-55
2022/08/03 09:29:11;;;;;;;7.30;1.88;;;;;;;32.09;32.50;93591.66;5128298;27;20115;-52
2022/08/03 09:31:40;;;;;;;2.38;1.80;;;;;;;33.16;29.71;93599.63;5128295;27;20214;-52
2022/08/03 09:34:07;;;;;;;1.92;1.83;;;;;;;32.55;29.43;93585.94;5127904;27;20057;-57
2022/08/03 09:36:42;;;;;;;3.33;1.40;;;;;;;32.47;30.00;93595.13;5127860;27;20028;-51
2022/08/03 09:39:14;;;;;;;2.20;1.60;;;;;;;32.25;29.18;93599.78;5127807;27;20035;-53
2022/08/03 09:41:45;;;;;;;2.45;1.45;;;;;;;32.78;30.49;93597.00;5124620;27;20407;-51
2022/08/03 09:44:10;;;;;;;1.40;1.30;;;;;;;33.70;27.77;93610.28;5117344;28;20019;-52
2022/08/03 09:46:52;;;;;;;1.40;1.30;;;;;;;34.48;25.22;93610.25;5118323;27;20730;-55
2022/08/03 09:49:18;;;;;;;1.33;1.23;;;;;;;34.14;25.39;93619.28;5115519;28;20030;-57
2022/08/03 09:51:44;;;;;;;1.50;1.40;;;;;;;33.73;25.46;93614.59;5114736;27;20019;-59
2022/08/03 09:54:09;;;;;;;2.58;1.60;;;;;;;33.81;26.97;93618.25;5114797;28;20496;-61
2022/08/03 09:56:46;;;;;;;2.85;1.40;;;;;;;34.15;24.59;93615.75;5113291;28;20030;-61
2022/08/03 09:59:13;;;;;;;1.75;1.38;;;;;;;33.55;26.01;93610.13;5113757;28;20526;-60
2022/08/03 10:01:41;;;;;;;1.98;1.35;;;;;;;33.84;27.97;93619.00;5119422;27;20030;-60
2022/08/03 10:04:15;;;;;;;1.55;1.45;;;;;;;33.98;24.56;93614.09;5127456;27;20563;-58
2022/08/03 10:06:43;;;;;;;11.25;1.75;;;;;;;33.76;26.32;93593.88;5126934;27;20069;-56
2022/08/03 10:09:14;;;;;;;1.50;1.40;;;;;;;34.48;25.06;93610.94;5127266;27;20027;-57
2022/08/03 10:11:41;;;;;;;1.42;1.33;;;;;;;35.13;23.82;93605.66;5127307;27;20076;-52
2022/08/03 10:14:17;;;;;;;2.22;1.30;;;;;;;35.90;23.60;93601.59;5126795;27;20023;-54
2022/08/03 10:16:43;;;;;;;3.83;1.50;;;;;;;36.40;21.60;93589.41;5111612;27;20058;-54
2022/08/03 10:19:09;;;;;;;4.10;1.50;;;;;;;36.56;22.47;93598.03;5126995;27;20023;-57
2022/08/03 10:21:37;;;;;;;2.30;2.10;;;;;;;36.40;22.24;93589.41;5125646;28;20034;-55
2022/08/03 10:24:07;;;;;;;4.10;1.30;;;;;;;36.70;24.34;93592.25;5110845;27;20500;-58
2022/08/03 10:26:37;;;;;;;2.00;1.17;;;;;;;37.01;21.84;93593.66;5115132;28;20040;-53
2022/08/03 10:29:06;;;;;;;1.70;1.60;;;;;;;36.87;22.04;93570.63;5113017;28;20028;-55
2022/08/03 10:31:39;;;;;;;1.40;1.30;;;;;;;37.07;21.89;93592.91;5112007;28;20023;-50
2022/08/03 10:34:10;;;;;;;54.50;5.80;;;;;;;36.56;24.22;93583.66;5111298;28;20531;-54
2022/08/03 10:36:37;;;;;;;4.40;1.20;;;;;;;36.72;22.08;93580.75;5112900;28;20522;-54
2022/08/03 10:39:03;;;;;;;1.88;1.67;;;;;;;37.64;21.23;93573.25;5113124;28;20028;-52
2022/08/03 10:41:37;;;;;;;2.67;1.27;;;;;;;37.64;21.40;93573.25;5111804;28;20106;-59
2022/08/03 10:44:06;;;;;;;7.63;1.52;;;;;;;37.56;21.45;93568.22;5109384;28;20039;-58
2022/08/03 10:46:32;;;;;;;1.73;1.48;;;;;;;36.35;22.44;93577.19;5091272;28;20107;-48
2022/08/03 10:48:58;;;;;;;2.25;1.25;;;;;;;36.23;22.95;93576.47;5092625;28;20115;-54
2022/08/03 10:51:29;;;;;;;1.48;1.30;;;;;;;36.88;22.06;93572.09;5092647;28;20094;-56
2022/08/03 10:53:54;;;;;;;1.77;1.48;;;;;;;37.88;21.99;93576.69;5101517;28;20034;-57
2022/08/03 10:59:45;;;;;;;1.10;1.10;;;;;;;38.83;19.12;93560.78;5112606;28;20039;-59
2022/08/03 11:02:12;;;;;;;2.03;1.23;;;;;;;38.48;18.70;93558.22;5112803;28;20020;-58
2022/08/03 11:04:38;;;;;;;2.30;1.73;;;;;;;37.66;20.80;93564.56;5112938;28;20110;-54
2022/08/03 11:07:23;;;;;;;8.00;2.33;;;;;;;37.44;21.06;93551.03;5112508;28;20177;-57
2022/08/03 11:09:53;;;;;;;1.70;1.60;;;;;;;37.22;21.01;93566.22;5112857;28;20032;-57
2022/08/03 11:12:26;;;;;;;3.40;1.50;;;;;;;37.18;20.89;93563.38;5112515;28;20407;-55
2022/08/03 11:14:53;;;;;;;2.00;1.50;;;;;;;36.24;22.19;93557.78;5111764;27;20034;-56
2022/08/03 11:17:18;;;;;;;5.55;1.55;;;;;;;35.57;22.24;93557.00;5112356;28;20473;-61
2022/08/03 11:19:49;;;;;;;1.40;1.27;;;;;;;34.95;24.59;93568.94;5112640;28;20024;-54
2022/08/03 11:22:15;;;;;;;1.60;1.50;;;;;;;33.82;24.59;93565.28;5108591;28;20024;-55
2022/08/03 11:24:50;;;;;;;2.30;1.85;;;;;;;33.30;25.13;93562.59;5106869;28;20060;-60
2022/08/03 11:27:22;;;;;;;4.03;1.98;;;;;;;32.13;27.79;93557.44;5112415;28;20454;-58
2022/08/03 11:29:57;;;;;;;2.00;1.73;;;;;;;31.57;28.11;93553.63;5112101;28;20032;-51
2022/08/03 11:32:53;;;;;;;2.88;2.10;;;;;;;31.20;29.80;93547.25;5112341;28;20043;-58
2022/08/03 11:35:24;;;;;;;1.88;1.70;;;;;;;30.94;28.22;93548.88;5102610;28;20112;-48
2022/08/03 11:37:53;;;;;;;8.48;2.42;;;;;;;30.56;29.79;93546.66;5096796;28;20031;-52
2022/08/03 11:40:37;;;;;;;;;;;;;;;30.21;30.01;93540.88;5100402;28;20151;-56
2022/08/03 11:43:06;;;;;;;2.10;1.90;;;;;;;29.72;31.00;93491.34;5096592;28;19916;-52
2022/08/03 11:45:31;;;;;;;2.05;1.83;;;;;;;30.07;31.18;93544.13;5098465;28;20020;-54
2022/08/03 11:48:02;;;;;;;1.92;1.83;;;;;;;29.78;31.88;93539.91;5100714;28;20114;-60
2022/08/03 11:50:35;;;;;;;2.95;1.95;;;;;;;29.36;32.08;93543.78;5103377;28;20046;-53
2022/08/03 11:53:01;;;;;;;2.83;1.83;;;;;;;29.19;32.50;93540.53;5105905;28;20039;-53
2022/08/03 11:55:29;;;;;;;2.17;1.75;;;;;;;28.96;32.97;93532.03;5107896;28;20027;-54
2022/08/03 11:57:57;;;;;;;2.40;1.85;;;;;;;29.02;32.87;93541.47;5111845;28;20430;-56